ROMMA est une association bénévole à but non lucratif. Votre soutien est indispensable : ADHERER à ROMMA ou FAIRE un DON

Briord - (01, Ain)

Bugey (281 m)   Longitude: 05° 29' 13" E   Latitude: 45° 46' 37" N Station partenaire n°15
 

Détail journalier du     <<     >>

Température Precipitation Humidité Pression Vent Dir Rafale Dir. rafale Ensol.
Heure (°C) (mm) (%) (hPa) (km/h) (km/h) (min)
01:00 20.72.28810182NNE16NE0
02:00 20.208910181---13N0
03:00 19.809010182SE15NO0
04:00 19.408710191SE13NNO0
05:00 19.3090101905SE0
06:00 19.108810191---11NNE0
07:00 19.2089101905SSE0
08:00 19.4088101908SSE0
09:00 19.4087102002N0
10:00 20.3086102000---0
11:00 23.9074102003NNE0
12:00 24.605910212ONO8ONO0
13:00 26.305810211O11ONO0
14:00 27.805710214ONO13ONO25
15:00 29.105410214ONO15OSO60
16:00 30.405310205ONO18OSO60
17:00 31.505010206NO21NO60
18:00 32.004610197ONO23O60
19:00 32.404610197ONO23N60
20:00 32.804210196NO23N60
21:00 32.504410195NO16ONO55
22:00 31.104710193NO18ONO0
23:00 28.305310192NNE8NNO0
minuit 24.3064102006NE0

Graphique du 21-07-2019

 

Serveur OMMA